Wetterverlauf

Letzte Wetterlage 21.04.2014 14:02
Wetterdiagramm
Tabellarische Darstellung
Datum Temperatur Windchill Feuchte Luftdruck Windrichtung Windstärke Niederschlag
21.04.2014 14:02 16 °C 15 °C 62 % 1002,6 hPa 51 2.7 0,00 mm
21.04.2014 13:42 17 °C 13 °C 62 % 1002,7 hPa 55 4.5 0,00 mm
21.04.2014 13:22 17 °C 15 °C 61 % 1002,8 hPa 86 3.1 0,00 mm
21.04.2014 13:02 18 °C 15 °C 60 % 1002,9 hPa 59 4.0 0,00 mm
21.04.2014 12:42 18 °C 16 °C 62 % 1003,0 hPa 59 3.1 0,00 mm
21.04.2014 12:22 18 °C 17 °C 63 % 1003,2 hPa 67 2.2 0,00 mm
21.04.2014 12:02 18 °C 16 °C 64 % 1003,4 hPa 42 2.7 0,00 mm
21.04.2014 11:42 16 °C 13 °C 65 % 1003,5 hPa 58 4.0 0,00 mm
21.04.2014 11:22 16 °C 16 °C 66 % 1003,5 hPa 61 1.8 0,00 mm
21.04.2014 11:02 16 °C 16 °C 68 % 1003,6 hPa 55 0.9 0,00 mm
21.04.2014 10:42 15 °C 15 °C 69 % 1003,8 hPa 56 0.9 0,00 mm
21.04.2014 10:22 15 °C 14 °C 73 % 1003,9 hPa 59 2.2 0,00 mm
21.04.2014 10:02 14 °C 13 °C 74 % 1004,0 hPa 56 2.2 0,00 mm
21.04.2014 09:42 13 °C 13 °C 77 % 1004,2 hPa 75 0.4 0,00 mm
21.04.2014 09:22 12 °C 12 °C 79 % 1004,4 hPa 105 0.9 0,00 mm
21.04.2014 09:02 12 °C 12 °C 76 % 1004,4 hPa 61 1.8 0,00 mm
21.04.2014 08:42 11 °C 11 °C 85 % 1004,4 hPa 67 0.9 0,00 mm
21.04.2014 08:22 10 °C 10 °C 90 % 1004,4 hPa 82 0.0 0,00 mm
21.04.2014 08:02 8 °C 8 °C 91 % 1004,5 hPa 93 0.0 0,00 mm
21.04.2014 07:42 7 °C 7 °C 90 % 1004,4 hPa 93 0.0 0,00 mm
21.04.2014 07:22 7 °C 7 °C 90 % 1004,2 hPa 93 0.0 0,00 mm
21.04.2014 07:02 7 °C 7 °C 90 % 1004,2 hPa 93 0.0 0,00 mm
21.04.2014 06:42 7 °C 7 °C 89 % 1004,2 hPa 93 0.0 0,00 mm
21.04.2014 06:22 7 °C 7 °C 89 % 1004,2 hPa 93 0.0 0,00 mm
21.04.2014 06:02 7 °C 7 °C 86 % 1004,2 hPa 86 0.0 0,00 mm
1
Empfehlen Sie wetter.com
| Mehr
Neue Wetterwarnung

Neue Niederschlagsmeldung
Neue Meldung
Regen Liveticker
    sehr starker Regen/Gewitter
    starker Regen/Gewitter
    mäßiger bis starker Regen
    mäßiger Regen
    leichter bis mäßiger Regen
    kein Regen